ADDS METAR Data INFO
IDs: Format: Raw Decoded Include TAF

Data at: 0049 UTC 22 Oct 2017

KBGM 212353Z 20005KT 10SM CLR 18/03 A3034 RMK AO2 SLP274 T01780033 10217 20172 53006
KBGM 212253Z 21007KT 10SM CLR 18/03 A3033 RMK AO2 SLP273 T01830033
KBGM 212153Z 19003KT 10SM CLR 19/04 A3032 RMK AO2 SLP269 T01890044
KBGM 212053Z 21003KT 10SM CLR 21/03 A3032 RMK AO2 SLP266 T02060033 56003
KBGM 211953Z 21005KT 10SM CLR 21/03 A3032 RMK AO2 SLP264 T02110033
KBGM 211853Z 22006KT 10SM CLR 21/03 A3032 RMK AO2 SLP266 T02110028
KBGM 211753Z 25007KT 10SM CLR 21/02 A3033 RMK AO2 SLP267 T02060022 10206 20061 58008
KBGM 211653Z VRB03KT 10SM CLR 19/03 A3034 RMK AO2 SLP271 T01940028
KBGM 211553Z VRB04KT 10SM CLR 18/04 A3035 RMK AO2 SLP277 T01780039
KBGM 211453Z 23004KT 10SM CLR 15/03 A3035 RMK AO2 SLP279 T01500028 51008
KBGM 211353Z 25005KT 10SM CLR 14/02 A3035 RMK AO2 SLP280 T01390017
KBGM 211253Z 22005KT 10SM CLR 12/02 A3034 RMK AO2 SLP276 T01220017
KBGM 211153Z 18004KT 10SM CLR 07/01 A3033 RMK AO2 SLP275 T00720006 10106 20056 51017
KBGM 211053Z 15003KT 10SM CLR 07/02 A3031 RMK AO2 SLP270 T00670017
KBGM 210953Z 00000KT 10SM CLR 07/02 A3029 RMK AO2 SLP262 T00670017
KBGM 210853Z AUTO 00000KT 10SM CLR 08/01 A3027 RMK AO2 SLP254 T00780011 53002
KBGM 210753Z AUTO 00000KT 10SM CLR 10/01 A3027 RMK AO2 SLP250 T01000006
KBGM 210653Z AUTO 00000KT 10SM CLR 09/01 A3027 RMK AO2 SLP250 T00890011
KBGM 210553Z AUTO 00000KT 10SM CLR 11/M01 A3027 RMK AO2 SLP250 T01061006 10139 20100 53012
KBGM 210453Z AUTO 00000KT 10SM CLR 11/00 A3025 RMK AO2 SLP244 T01110000 401780072
KBGM 210353Z AUTO 18003KT 10SM CLR 11/00 A3024 RMK AO2 SLP241 T01110000
KBGM 210253Z 19004KT 10SM CLR 11/00 A3023 RMK AO2 SLP240 T01110000 53006
KBGM 210153Z 19004KT 10SM CLR 12/01 A3022 RMK AO2 SLP237 T01170006
KBGM 210053Z 00000KT 10SM CLR 14/M01 A3022 RMK AO2 SLP234 T01391006
KBGM 202353Z 32005KT 10SM CLR 13/01 A3021 RMK AO2 SLP235 T01280006 10178 20122 50003
KBGM 202253Z 30003KT 10SM CLR 13/02 A3022 RMK AO2 SLP237 T01330017
KBGM 202153Z 32005KT 10SM CLR 16/01 A3020 RMK AO2 SLP230 T01560006
KBGM 202053Z 32007KT 10SM CLR 17/01 A3020 RMK AO2 SLP228 T01670006 58002
KBGM 201953Z AUTO 33009KT 10SM CLR 18/01 A3021 RMK AO2 SLP228 T01780006
KBGM 201853Z 31008KT 10SM CLR 17/01 A3021 RMK AO2 SLP229 T01720006
KBGM 201753Z 34010KT 10SM CLR 17/00 A3021 RMK AO2 SLP229 T01670000 10172 20078 58006
KBGM 201653Z 30007KT 10SM CLR 16/01 A3022 RMK AO2 SLP234 T01610011
KBGM 201553Z 32010G16KT 10SM CLR 14/03 A3023 RMK AO2 SLP235 T01440028
KBGM 201453Z 32014KT 10SM CLR 13/03 A3023 RMK AO2 SLP236 T01280028 51012
KBGM 201353Z 31008KT 10SM CLR 12/03 A3023 RMK AO2 SLP236 T01170028
KBGM 201253Z 29005KT 10SM CLR 10/03 A3021 RMK AO2 SLP233 T01000028